createdAt,value
2023-01-04T00:01:33.895Z,102297.88
2023-01-04T00:04:01.941Z,102301.31
2023-01-04T00:06:29.960Z,102302.19
2023-01-04T00:08:57.833Z,102298.75
2023-01-04T00:11:26.089Z,102302.09
2023-01-04T00:13:57.793Z,102303.75
2023-01-04T00:16:29.324Z,102301.28
2023-01-04T00:18:58.205Z,102304.66
2023-01-04T00:21:27.907Z,102302.09
2023-01-04T00:23:57.597Z,102301.28
2023-01-04T00:26:27.515Z,102299.66
2023-01-04T00:28:56.141Z,102307.91
2023-01-04T00:31:26.097Z,102301.97
2023-01-04T00:33:55.525Z,102301.91
2023-01-04T00:36:23.839Z,102305.25
2023-01-04T00:39:08.043Z,102306.13
2023-01-04T00:41:58.175Z,102306.13
2023-01-04T00:44:26.195Z,102309.66
2023-01-04T00:46:55.761Z,102304.53
2023-01-04T00:49:24.073Z,102297.63
2023-01-04T00:51:52.226Z,102294.34
2023-01-04T00:54:20.351Z,102296.06
2023-01-04T00:56:49.427Z,102295.19
2023-01-04T00:59:19.340Z,102296.88
2023-01-04T01:01:48.243Z,102307.91
2023-01-04T01:04:20.102Z,102304.59
2023-01-04T01:06:48.159Z,102293.50
2023-01-04T01:09:16.783Z,102290.91
2023-01-04T01:11:45.437Z,102292.50
2023-01-04T01:14:18.723Z,102302.56
2023-01-04T01:17:02.470Z,102305.16
2023-01-04T01:19:34.578Z,102308.50
2023-01-04T01:22:02.441Z,102306.84
2023-01-04T01:24:30.343Z,102311.09
2023-01-04T01:26:59.078Z,102306.88
2023-01-04T01:29:26.969Z,102309.53
2023-01-04T01:31:55.504Z,102312.81
2023-01-04T01:34:23.583Z,102315.31
2023-01-04T01:36:52.881Z,102322.81
2023-01-04T01:39:20.880Z,102329.59
2023-01-04T01:41:48.969Z,102315.09
2023-01-04T01:44:59.124Z,102315.13
2023-01-04T01:47:32.523Z,102304.28
2023-01-04T01:50:01.594Z,102303.50
2023-01-04T01:52:35.603Z,102304.34
2023-01-04T01:55:07.831Z,102301.66
2023-01-04T01:57:39.307Z,102300.78
2023-01-04T02:00:10.825Z,102299.09
2023-01-04T02:02:40.635Z,102297.31
2023-01-04T02:05:09.381Z,102298.84
2023-01-04T02:07:39.272Z,102295.47
2023-01-04T02:10:08.383Z,102302.19
2023-01-04T02:12:36.387Z,102301.31
2023-01-04T02:15:04.657Z,102297.91
2023-01-04T02:17:40.322Z,102291.81
2023-01-04T02:20:31.515Z,102295.00
2023-01-04T02:23:36.123Z,102289.91
2023-01-04T02:26:44.849Z,102281.31
2023-01-04T02:29:49.107Z,102282.13
2023-01-04T02:32:28.452Z,102283.91
2023-01-04T02:35:04.618Z,102271.81
2023-01-04T02:37:41.477Z,102275.13
2023-01-04T02:40:18.269Z,102275.00
2023-01-04T02:43:16.037Z,102266.47
2023-01-04T02:45:50.880Z,102274.84
2023-01-04T02:48:37.629Z,102262.78
2023-01-04T02:51:05.565Z,102267.66
2023-01-04T02:53:37.396Z,102269.47
2023-01-04T02:56:18.703Z,102271.41
2023-01-04T02:59:04.451Z,102274.56
2023-01-04T03:01:59.225Z,102272.03
2023-01-04T03:04:59.602Z,102283.13
2023-01-04T03:07:34.615Z,102278.81
2023-01-04T03:10:09.323Z,102266.03
2023-01-04T03:12:43.214Z,102277.03
2023-01-04T03:15:16.199Z,102279.59
2023-01-04T03:17:47.997Z,102277.78
2023-01-04T03:20:19.753Z,102266.69
2023-01-04T03:23:09.210Z,102268.53
2023-01-04T03:28:10.731Z,102259.22
2023-01-04T03:31:06.378Z,102254.13
2023-01-04T03:33:51.879Z,102243.97
2023-01-04T03:36:33.915Z,102246.63
2023-01-04T03:39:27.468Z,102241.47
2023-01-04T03:42:19.542Z,102239.69
2023-01-04T03:45:15.907Z,102241.31
2023-01-04T03:48:07.521Z,102227.72
2023-01-04T03:50:40.735Z,102226.69
2023-01-04T03:53:10.229Z,102233.19
2023-01-04T03:55:40.543Z,102235.59
2023-01-04T03:58:08.547Z,102229.50
2023-01-04T04:00:37.926Z,102233.63
2023-01-04T04:03:10.502Z,102222.56
2023-01-04T04:05:58.512Z,102219.94
2023-01-04T04:08:28.657Z,102216.25
2023-01-04T04:10:58.147Z,102209.53
2023-01-04T04:13:26.218Z,102215.69
2023-01-04T04:15:55.677Z,102217.75
2023-01-04T04:18:23.687Z,102220.50
2023-01-04T04:20:58.886Z,102215.44
2023-01-04T04:23:26.773Z,102199.34
2023-01-04T04:25:54.786Z,102200.19
2023-01-04T04:28:22.591Z,102201.03
2023-01-04T04:30:50.633Z,102207.84
2023-01-04T04:33:19.933Z,102205.25
2023-01-04T04:35:51.701Z,102202.91
2023-01-04T04:38:19.807Z,102204.91
2023-01-04T04:41:06.141Z,102202.53
2023-01-04T04:43:34.492Z,102208.75
2023-01-04T04:46:02.953Z,102205.63
2023-01-04T04:48:32.298Z,102198.97
2023-01-04T04:51:00.274Z,102191.38
2023-01-04T04:53:28.219Z,102181.38
2023-01-04T04:55:56.102Z,102186.56
2023-01-04T04:58:23.993Z,102189.16
2023-01-04T05:00:51.864Z,102185.84
2023-01-04T05:03:19.976Z,102185.06
2023-01-04T05:05:49.237Z,102172.38
2023-01-04T05:08:17.151Z,102166.53
2023-01-04T05:10:45.038Z,102164.88
2023-01-04T05:13:13.219Z,102170.81
2023-01-04T05:15:43.279Z,102167.50
2023-01-04T05:18:12.920Z,102159.13
2023-01-04T05:20:41.016Z,102158.34
2023-01-04T05:23:12.666Z,102162.72
2023-01-04T05:25:40.813Z,102165.41
2023-01-04T05:28:09.727Z,102165.47
2023-01-04T05:30:51.905Z,102155.34
2023-01-04T05:33:21.772Z,102169.06
2023-01-04T05:35:49.795Z,102173.31
2023-01-04T05:38:19.499Z,102175.94
2023-01-04T05:40:47.912Z,102169.22
2023-01-04T05:43:16.252Z,102171.00
2023-01-04T05:45:45.814Z,102170.16
2023-01-04T05:48:13.732Z,102171.06
2023-01-04T05:50:41.658Z,102164.38
2023-01-04T05:53:09.646Z,102162.72
2023-01-04T05:55:38.864Z,102158.47
2023-01-04T05:58:06.883Z,102145.75
2023-01-04T06:00:34.808Z,102143.22
2023-01-04T06:03:02.908Z,102144.06
2023-01-04T06:05:30.796Z,102139.06
2023-01-04T06:07:58.716Z,102134.00
2023-01-04T06:10:26.751Z,102133.25
2023-01-04T06:12:56.048Z,102126.44
2023-01-04T06:15:23.892Z,102123.03
2023-01-04T06:17:51.863Z,102118.81
2023-01-04T06:20:19.899Z,102112.97
2023-01-04T06:22:47.877Z,102114.66
2023-01-04T06:25:15.802Z,102115.50
2023-01-04T06:27:43.740Z,102124.94
2023-01-04T06:30:13.611Z,102122.41
2023-01-04T06:32:41.473Z,102118.25
2023-01-04T06:35:09.758Z,102120.81
2023-01-04T06:37:38.238Z,102125.03
2023-01-04T06:40:07.400Z,102117.38
2023-01-04T06:42:47.234Z,102113.16
2023-01-04T06:45:17.287Z,102108.09
2023-01-04T06:47:47.978Z,102099.69
2023-01-04T06:50:15.980Z,102105.63
2023-01-04T06:52:44.300Z,102097.19
2023-01-04T06:55:12.171Z,102102.31
2023-01-04T06:57:40.062Z,102093.81
2023-01-04T07:00:09.779Z,102096.41
2023-01-04T07:02:39.187Z,102081.97
2023-01-04T07:05:26.907Z,102077.75
2023-01-04T07:07:54.860Z,102070.19
2023-01-04T07:10:22.790Z,102077.03
2023-01-04T07:12:50.648Z,102078.78
2023-01-04T07:15:38.041Z,102088.19
2023-01-04T07:18:07.934Z,102079.66
2023-01-04T07:20:35.905Z,102072.91
2023-01-04T07:23:03.924Z,102066.13
2023-01-04T07:25:31.858Z,102059.31
2023-01-04T07:27:59.761Z,102049.13
2023-01-04T07:30:27.776Z,102045.75
2023-01-04T07:32:57.042Z,102042.34
2023-01-04T07:35:27.006Z,102030.41
2023-01-04T07:37:58.739Z,102027.88
2023-01-04T07:40:28.002Z,102025.34
2023-01-04T07:42:58.032Z,102015.13
2023-01-04T07:45:26.818Z,102021.97
2023-01-04T07:47:54.949Z,102025.38
2023-01-04T07:50:22.879Z,102044.13
2023-01-04T07:52:52.144Z,102044.16
2023-01-04T07:55:20.053Z,102023.72
2023-01-04T07:57:47.944Z,102011.81
2023-01-04T08:00:16.510Z,102013.50
2023-01-04T08:02:44.665Z,102011.81
2023-01-04T08:05:12.726Z,102009.28
2023-01-04T08:07:40.635Z,102013.53
2023-01-04T08:10:10.557Z,102016.09
2023-01-04T08:12:38.341Z,102018.66
2023-01-04T08:15:07.283Z,102016.16
2023-01-04T08:17:35.564Z,102020.41
2023-01-04T08:20:03.536Z,102017.88
2023-01-04T08:22:31.412Z,102011.94
2023-01-04T08:24:59.716Z,101999.97
2023-01-04T08:27:29.072Z,101976.94
2023-01-04T08:29:57.049Z,101967.56
2023-01-04T08:32:25.052Z,101964.16
2023-01-04T08:34:54.305Z,101968.47
2023-01-04T08:37:22.578Z,101975.28
2023-01-04T08:39:50.429Z,101982.13
2023-01-04T08:42:28.533Z,101973.59
2023-01-04T08:45:01.806Z,101956.53
2023-01-04T08:47:30.298Z,101959.97
2023-01-04T08:49:58.671Z,101969.34
2023-01-04T08:52:27.140Z,101955.69
2023-01-04T08:54:55.208Z,101962.53
2023-01-04T08:57:23.101Z,101949.75
2023-01-04T08:59:50.996Z,101954.88
2023-01-04T09:02:25.482Z,101963.38
2023-01-04T09:04:55.353Z,101966.78
2023-01-04T09:07:23.305Z,101964.22
2023-01-04T09:09:51.152Z,101959.13
2023-01-04T09:12:19.083Z,101959.13
2023-01-04T09:14:47.044Z,101957.44
2023-01-04T09:17:15.006Z,101960.00
2023-01-04T09:19:44.237Z,101950.59
2023-01-04T09:22:12.208Z,101932.69
2023-01-04T09:24:40.179Z,101939.53
2023-01-04T09:27:08.127Z,101935.25
2023-01-04T09:29:36.087Z,101932.69
2023-01-04T09:32:04.135Z,101922.44
2023-01-04T09:34:32.054Z,101919.88
2023-01-04T09:37:01.405Z,101924.19
2023-01-04T09:39:30.660Z,101911.38
2023-01-04T09:42:00.354Z,101902.81
2023-01-04T09:47:36.032Z,101902.84
2023-01-04T09:50:07.734Z,101897.72
2023-01-04T09:52:50.444Z,101890.91
2023-01-04T09:55:39.768Z,101885.78
2023-01-04T09:58:27.872Z,101872.97
2023-01-04T10:01:03.091Z,101867.00
2023-01-04T10:03:34.522Z,101865.25
2023-01-04T10:06:03.943Z,101861.88
2023-01-04T10:08:33.631Z,101861.00
2023-01-04T10:11:17.211Z,101857.56
2023-01-04T10:13:54.897Z,101843.94
2023-01-04T10:17:11.861Z,101841.38
2023-01-04T10:22:37.799Z,101823.44
2023-01-04T10:25:25.234Z,101814.03
2023-01-04T10:28:07.973Z,101816.56
2023-01-04T10:30:45.399Z,101807.19
2023-01-04T10:33:15.554Z,101795.25
2023-01-04T10:35:45.913Z,101792.69
2023-01-04T10:38:19.299Z,101792.66
2023-01-04T10:40:50.427Z,101783.25
2023-01-04T10:43:30.748Z,101784.97
2023-01-04T10:46:23.791Z,101778.13
2023-01-04T10:48:57.452Z,101776.41
2023-01-04T10:51:32.854Z,101760.16
2023-01-04T10:54:08.768Z,101754.22
2023-01-04T10:56:46.179Z,101746.50
2023-01-04T10:59:18.173Z,101737.09
2023-01-04T11:01:53.204Z,101737.06
2023-01-04T11:04:26.919Z,101728.53
2023-01-04T11:07:01.284Z,101726.81
2023-01-04T11:09:34.422Z,101715.69
2023-01-04T11:12:04.129Z,101714.81
2023-01-04T11:14:37.273Z,101707.97
2023-01-04T11:17:08.699Z,101703.69
2023-01-04T11:19:36.801Z,101700.25
2023-01-04T11:22:12.581Z,101693.41
2023-01-04T11:24:54.491Z,101697.66
2023-01-04T11:27:36.824Z,101686.56
2023-01-04T11:30:11.551Z,101684.84
2023-01-04T11:32:46.312Z,101688.25
2023-01-04T11:35:14.610Z,101673.72
2023-01-04T11:37:43.477Z,101671.13
2023-01-04T11:40:22.504Z,101662.56
2023-01-04T11:42:53.659Z,101658.25
2023-01-04T11:45:25.490Z,101655.69
2023-01-04T11:47:55.002Z,101652.25
2023-01-04T11:50:37.582Z,101649.69
2023-01-04T11:53:23.920Z,101631.72
2023-01-04T11:55:52.415Z,101624.03
2023-01-04T11:58:22.124Z,101616.31
2023-01-04T12:00:54.717Z,101604.34
2023-01-04T12:03:27.647Z,101602.59
2023-01-04T12:05:55.998Z,101593.22
2023-01-04T12:08:30.380Z,101582.94
2023-01-04T12:10:59.401Z,101571.00
2023-01-04T12:13:29.507Z,101566.66
2023-01-04T12:16:06.794Z,101555.53
2023-01-04T12:18:38.500Z,101558.94
2023-01-04T12:21:06.849Z,101560.63
2023-01-04T12:23:35.173Z,101552.09
2023-01-04T12:26:03.862Z,101552.91
2023-01-04T12:28:36.205Z,101545.22
2023-01-04T12:31:33.726Z,101546.94
2023-01-04T12:34:31.389Z,101541.81
2023-01-04T12:37:05.255Z,101533.22
2023-01-04T12:39:43.700Z,101536.69
2023-01-04T12:42:22.173Z,101526.38
2023-01-04T12:45:19.207Z,101529.78
2023-01-04T12:48:09.355Z,101522.06
2023-01-04T12:51:35.422Z,101510.91
2023-01-04T12:54:04.604Z,101499.81
2023-01-04T12:57:23.771Z,101495.50
2023-01-04T12:59:56.309Z,101494.66
2023-01-04T13:02:27.669Z,101477.59
2023-01-04T13:05:25.741Z,101480.94
2023-01-04T13:07:48.303Z,101468.94
2023-01-04T13:10:34.961Z,101459.53
2023-01-04T13:13:17.249Z,101451.84
2023-01-04T13:15:56.251Z,101439.81
2023-01-04T13:18:41.658Z,101436.41
2023-01-04T13:21:15.510Z,101427.78
2023-01-04T13:23:50.913Z,101416.66
2023-01-04T13:26:29.868Z,101420.06
2023-01-04T13:29:15.822Z,101415.81
2023-01-04T13:31:50.981Z,101406.34
2023-01-04T13:34:26.280Z,101400.41
2023-01-04T13:37:01.721Z,101399.50
2023-01-04T13:39:30.221Z,101386.66
2023-01-04T13:41:59.309Z,101390.16
2023-01-04T13:45:17.779Z,101377.28
2023-01-04T13:47:36.737Z,101383.22
2023-01-04T13:50:15.181Z,101372.91
2023-01-04T13:53:00.073Z,101367.78
2023-01-04T13:55:35.884Z,101361.00
2023-01-04T13:58:08.200Z,101362.63
2023-01-04T14:00:43.877Z,101348.13
2023-01-04T14:03:31.495Z,101351.59
2023-01-04T14:06:13.142Z,101334.44
2023-01-04T14:08:45.757Z,101330.16
2023-01-04T14:11:40.031Z,101317.31
2023-01-04T14:14:23.390Z,101317.31
2023-01-04T14:16:52.839Z,101310.50
2023-01-04T14:19:43.383Z,101314.78
2023-01-04T14:22:38.085Z,101303.63
2023-01-04T14:25:48.556Z,101305.38
2023-01-04T14:28:49.707Z,101305.41
2023-01-04T14:31:36.394Z,101301.94
2023-01-04T14:34:14.464Z,101294.25
2023-01-04T14:36:44.246Z,101278.94
2023-01-04T14:39:35.528Z,101278.91
2023-01-04T14:42:05.058Z,101270.34
2023-01-04T14:44:36.155Z,101269.47
2023-01-04T14:47:07.356Z,101262.66
2023-01-04T14:49:35.549Z,101255.84
2023-01-04T14:52:10.346Z,101247.31
2023-01-04T14:54:40.253Z,101247.22
2023-01-04T14:57:08.193Z,101243.88
2023-01-04T14:59:36.128Z,101242.13
2023-01-04T15:02:04.036Z,101234.44
2023-01-04T15:04:32.017Z,101227.63
2023-01-04T15:07:01.387Z,101229.31
2023-01-04T15:09:30.106Z,101219.06
2023-01-04T15:11:59.559Z,101217.34
2023-01-04T15:14:27.539Z,101218.19
2023-01-04T15:16:55.397Z,101213.91
2023-01-04T15:19:23.431Z,101211.41
2023-01-04T15:21:51.307Z,101205.31
2023-01-04T15:24:19.247Z,101196.75
2023-01-04T15:26:47.214Z,101195.97
2023-01-04T15:29:16.538Z,101195.88
2023-01-04T15:31:44.767Z,101192.50
2023-01-04T15:34:14.908Z,101184.81
2023-01-04T15:36:42.779Z,101178.81
2023-01-04T15:39:14.070Z,101180.47
2023-01-04T15:41:59.295Z,101170.28
2023-01-04T15:44:28.683Z,101175.34
2023-01-04T15:46:59.322Z,101168.59
2023-01-04T15:49:27.600Z,101159.22
2023-01-04T15:51:55.455Z,101150.63
2023-01-04T15:54:25.811Z,101149.81
2023-01-04T15:56:53.688Z,101149.88
2023-01-04T15:59:21.701Z,101154.09
2023-01-04T16:01:51.175Z,101143.84
2023-01-04T16:04:19.188Z,101147.28
2023-01-04T16:06:47.201Z,101135.28
2023-01-04T16:09:16.387Z,101133.59
2023-01-04T16:11:58.202Z,101127.56
2023-01-04T16:14:26.085Z,101118.25
2023-01-04T16:16:57.650Z,101119.97
2023-01-04T16:19:25.538Z,101117.31
2023-01-04T16:21:53.460Z,101113.00
2023-01-04T16:27:09.716Z,101098.41
2023-01-04T16:29:37.827Z,101095.84
2023-01-04T16:32:08.069Z,101094.19
2023-01-04T16:34:36.249Z,101088.16
2023-01-04T16:37:04.302Z,101077.97
2023-01-04T16:40:05.429Z,101083.00
2023-01-04T16:42:20.459Z,101071.91
2023-01-04T16:44:48.312Z,101079.66
2023-01-04T16:47:17.869Z,101073.69
2023-01-04T16:49:45.918Z,101061.72
2023-01-04T16:52:14.154Z,101059.91
2023-01-04T16:54:42.111Z,101054.72
2023-01-04T16:57:10.030Z,101048.81
2023-01-04T16:59:37.947Z,101043.69
2023-01-04T17:02:06.069Z,101034.28
2023-01-04T17:04:35.569Z,101030.88
2023-01-04T17:07:05.507Z,101031.72
2023-01-04T17:09:33.527Z,101030.03
2023-01-04T17:12:45.007Z,101025.78
2023-01-04T17:15:14.888Z,101013.72
2023-01-04T17:17:39.044Z,101019.75
2023-01-04T17:20:09.714Z,101008.59
2023-01-04T17:22:37.568Z,101002.63
2023-01-04T17:25:06.238Z,101005.16
2023-01-04T17:27:36.031Z,100991.38
2023-01-04T17:30:04.215Z,100993.13
2023-01-04T17:32:32.068Z,100989.75
2023-01-04T17:34:59.903Z,100972.59
2023-01-04T17:37:29.216Z,100979.44
2023-01-04T17:39:57.131Z,100967.47
2023-01-04T17:42:25.005Z,100973.47
2023-01-04T17:44:53.534Z,100960.59
2023-01-04T17:47:21.447Z,100969.16
2023-01-04T17:49:49.373Z,100964.81
2023-01-04T17:52:24.438Z,100961.50
2023-01-04T17:54:58.255Z,100953.69
2023-01-04T17:57:26.527Z,100953.66
2023-01-04T17:59:54.382Z,100956.25
2023-01-04T18:02:22.293Z,100944.25
2023-01-04T18:04:50.144Z,100941.66
2023-01-04T18:07:18.016Z,100945.09
2023-01-04T18:09:45.921Z,100947.56
2023-01-04T18:12:15.300Z,100945.81
2023-01-04T18:14:43.193Z,100946.63
2023-01-04T18:17:11.220Z,100939.75
2023-01-04T18:19:41.680Z,100933.75
2023-01-04T18:22:12.473Z,100923.47
2023-01-04T18:24:40.385Z,100930.31
2023-01-04T18:27:26.218Z,100930.19
2023-01-04T18:29:57.087Z,100929.34
2023-01-04T18:32:26.715Z,100930.16
2023-01-04T18:34:57.253Z,100919.81
2023-01-04T18:37:25.135Z,100923.28
2023-01-04T18:39:53.299Z,100918.06
2023-01-04T18:42:21.149Z,100913.72
2023-01-04T18:44:49.866Z,100905.16
2023-01-04T18:47:21.664Z,100903.41
2023-01-04T18:49:49.809Z,100894.78
2023-01-04T18:52:18.653Z,100900.72
2023-01-04T18:54:48.021Z,100892.16
2023-01-04T18:57:16.277Z,100892.97
2023-01-04T18:59:44.227Z,100888.66
2023-01-04T19:02:17.745Z,100886.91
2023-01-04T19:04:47.420Z,100876.66
2023-01-04T19:07:15.613Z,100880.00
2023-01-04T19:09:43.837Z,100869.69
2023-01-04T19:12:12.090Z,100875.66
2023-01-04T19:14:41.156Z,100873.88
2023-01-04T19:17:09.465Z,100873.03
2023-01-04T19:19:37.997Z,100878.16
2023-01-04T19:22:07.509Z,100866.13
2023-01-04T19:24:35.482Z,100864.38
2023-01-04T19:27:05.219Z,100858.38
2023-01-04T19:29:36.108Z,100857.50
2023-01-04T19:32:04.459Z,100860.03
2023-01-04T19:34:32.649Z,100851.53
2023-01-04T19:37:00.656Z,100860.88
2023-01-04T19:39:30.285Z,100843.81
2023-01-04T19:41:58.104Z,100847.13
2023-01-04T19:44:25.994Z,100850.56
2023-01-04T19:46:54.003Z,100850.56
2023-01-04T19:49:21.986Z,100857.44
2023-01-04T19:51:51.727Z,100841.97
2023-01-04T19:54:25.028Z,100846.22
2023-01-04T19:56:55.434Z,100845.38
2023-01-04T19:59:24.024Z,100842.78
2023-01-04T20:01:52.660Z,100841.88
2023-01-04T20:04:20.836Z,100841.78
2023-01-04T20:06:48.914Z,100849.41
2023-01-04T20:09:18.524Z,100835.66
2023-01-04T20:11:46.627Z,100833.94
2023-01-04T20:14:15.944Z,100835.72
2023-01-04T20:16:44.053Z,100833.13
2023-01-04T20:19:12.009Z,100838.19
2023-01-04T20:21:40.544Z,100830.53
2023-01-04T20:24:09.031Z,100831.34
2023-01-04T20:26:37.897Z,100830.50
2023-01-04T20:29:06.428Z,100834.84
2023-01-04T20:31:38.970Z,100829.66
2023-01-04T20:34:10.308Z,100828.69
2023-01-04T20:36:39.746Z,100821.81
2023-01-04T20:39:07.646Z,100819.28
2023-01-04T20:41:35.569Z,100827.03
2023-01-04T20:44:02.974Z,100819.97
2023-01-04T20:46:33.148Z,100823.44
2023-01-04T20:49:03.873Z,100816.50
2023-01-04T20:51:32.251Z,100815.63
2023-01-04T20:54:00.803Z,100811.28
2023-01-04T20:56:31.550Z,100813.75
2023-01-04T20:58:59.528Z,100804.31
2023-01-04T21:01:27.749Z,100806.00
2023-01-04T21:03:56.157Z,100805.09
2023-01-04T21:06:25.868Z,100797.47
2023-01-04T21:08:55.148Z,100805.06
2023-01-04T21:11:23.795Z,100805.09
2023-01-04T21:13:53.266Z,100808.56
2023-01-04T21:16:21.337Z,100810.19
2023-01-04T21:18:49.355Z,100802.47
2023-01-04T21:21:18.761Z,100801.63
2023-01-04T21:23:54.744Z,100800.81
2023-01-04T21:26:25.689Z,100794.81
2023-01-04T21:28:53.652Z,100798.31
2023-01-04T21:31:24.159Z,100789.78
2023-01-04T21:33:53.435Z,100788.16
2023-01-04T21:36:23.289Z,100800.22
2023-01-04T21:38:54.232Z,100792.53
2023-01-04T21:41:24.868Z,100789.13
2023-01-04T21:43:54.417Z,100786.63
2023-01-04T21:46:24.975Z,100789.13
2023-01-04T21:48:55.817Z,100790.94
2023-01-04T21:51:24.218Z,100781.50
2023-01-04T21:53:53.572Z,100793.50
2023-01-04T21:56:24.350Z,100793.50
2023-01-04T21:58:52.484Z,100790.00
2023-01-04T22:01:22.925Z,100791.72
2023-01-04T22:03:51.398Z,100794.19
2023-01-04T22:06:20.820Z,100788.25
2023-01-04T22:08:48.818Z,100794.19
2023-01-04T22:11:18.363Z,100785.59
2023-01-04T22:13:46.386Z,100794.06
2023-01-04T22:16:16.024Z,100794.13
2023-01-04T22:18:48.564Z,100792.38
2023-01-04T22:21:18.893Z,100788.97
2023-01-04T22:23:46.911Z,100787.22
2023-01-04T22:26:14.725Z,100790.59
2023-01-04T22:28:44.188Z,100790.59
2023-01-04T22:31:14.789Z,100789.72
2023-01-04T22:33:43.260Z,100795.72
2023-01-04T22:36:21.289Z,100791.47
2023-01-04T22:38:50.866Z,100792.28
2023-01-04T22:41:21.199Z,100795.72
2023-01-04T22:43:55.581Z,100797.47
2023-01-04T22:46:23.564Z,100798.41
2023-01-04T22:48:51.444Z,100808.72
2023-01-04T22:51:20.955Z,100803.53
2023-01-04T22:53:49.091Z,100797.59
2023-01-04T22:56:21.376Z,100794.19
2023-01-04T22:58:54.168Z,100788.16
2023-01-04T23:01:23.211Z,100797.59
2023-01-04T23:03:52.471Z,100794.19
2023-01-04T23:06:20.801Z,100793.47
2023-01-04T23:08:48.720Z,100797.69
2023-01-04T23:11:19.135Z,100796.81
2023-01-04T23:13:47.344Z,100795.13
2023-01-04T23:16:17.839Z,100795.22
2023-01-04T23:18:46.629Z,100790.94
2023-01-04T23:21:15.226Z,100796.81
2023-01-04T23:23:43.719Z,100794.25
2023-01-04T23:26:15.001Z,100800.19
2023-01-04T23:28:43.230Z,100799.38
2023-01-04T23:31:14.352Z,100798.47
2023-01-04T23:33:43.693Z,100800.16
2023-01-04T23:36:14.364Z,100795.13
2023-01-04T23:38:42.960Z,100789.06
2023-01-04T23:41:12.225Z,100798.53
2023-01-04T23:43:40.365Z,100799.34
2023-01-04T23:48:37.156Z,100794.25
2023-01-04T23:51:06.909Z,100793.50
2023-01-04T23:53:34.940Z,100797.78
2023-01-04T23:56:06.047Z,100809.00
2023-01-04T23:58:35.126Z,100802.09
